createdAt,value
2023-11-06T00:04:51.316Z,26.9
2023-11-06T00:10:42.029Z,26.9
2023-11-06T00:16:45.768Z,26.9
2023-11-06T00:22:37.926Z,26.9
2023-11-06T00:28:28.129Z,26.9
2023-11-06T00:34:20.792Z,26.9
2023-11-06T00:40:15.724Z,26.9
2023-11-06T00:46:07.224Z,26.9
2023-11-06T00:51:59.295Z,26.9
2023-11-06T00:57:51.297Z,26.9
2023-11-06T01:03:11.445Z,26.8
2023-11-06T01:08:49.005Z,26.8
2023-11-06T01:14:25.332Z,26.8
2023-11-06T01:19:45.862Z,26.8
2023-11-06T01:25:47.951Z,26.8
2023-11-06T01:31:23.972Z,26.8
2023-11-06T01:36:59.957Z,26.8
2023-11-06T01:42:52.185Z,26.8
2023-11-06T01:48:44.796Z,26.8
2023-11-06T01:54:35.625Z,26.8
2023-11-06T02:00:11.958Z,26.8
2023-11-06T02:06:04.821Z,26.8
2023-11-06T02:11:40.872Z,26.8
2023-11-06T02:17:33.612Z,26.7
2023-11-06T02:23:36.496Z,26.7
2023-11-06T02:29:28.255Z,26.7
2023-11-06T02:35:21.301Z,26.7
2023-11-06T02:41:14.050Z,26.6
2023-11-06T02:47:06.050Z,26.6
2023-11-06T02:53:00.243Z,26.6
2023-11-06T02:58:52.045Z,26.6
2023-11-06T03:04:44.187Z,26.6
2023-11-06T03:10:37.088Z,26.6
2023-11-06T03:16:28.957Z,26.6
2023-11-06T03:22:20.963Z,26.6
2023-11-06T03:28:12.691Z,26.6
2023-11-06T03:34:05.346Z,26.6
2023-11-06T03:39:57.268Z,26.6
2023-11-06T03:45:52.773Z,26.5
2023-11-06T03:51:46.583Z,26.5
2023-11-06T03:57:37.563Z,26.5
2023-11-06T04:03:14.554Z,26.5
2023-11-06T04:09:09.611Z,26.5
2023-11-06T04:15:02.053Z,26.4
2023-11-06T04:20:55.438Z,26.4
2023-11-06T04:26:47.718Z,26.4
2023-11-06T04:38:17.612Z,26.4
2023-11-06T04:44:10.051Z,26.4
2023-11-06T04:50:01.815Z,26.4
2023-11-06T04:55:53.771Z,26.4
2023-11-06T05:01:48.679Z,26.4
2023-11-06T05:07:26.557Z,26.4
2023-11-06T05:13:18.380Z,26.4
2023-11-06T05:19:09.947Z,26.4
2023-11-06T05:24:50.780Z,26.3
2023-11-06T05:30:42.940Z,26.3
2023-11-06T05:41:56.719Z,26.3
2023-11-06T05:47:33.413Z,26.3
2023-11-06T05:53:27.117Z,26.3
2023-11-06T05:59:06.814Z,26.3
2023-11-06T06:04:45.089Z,26.3
2023-11-06T06:10:24.018Z,26.3
2023-11-06T06:15:59.514Z,26.3
2023-11-06T06:21:37.665Z,26.3
2023-11-06T06:27:14.281Z,26.2
2023-11-06T06:32:52.362Z,26.2
2023-11-06T06:38:14.291Z,26.2
2023-11-06T06:43:50.449Z,26.2
2023-11-06T06:49:11.504Z,26.2
2023-11-06T06:54:48.575Z,26.2
2023-11-06T07:00:25.338Z,26.2
2023-11-06T07:06:02.683Z,26.1
2023-11-06T07:11:40.180Z,26.1
2023-11-06T07:17:16.634Z,26.1
2023-11-06T07:22:53.666Z,26.1
2023-11-06T07:28:15.859Z,26.1
2023-11-06T07:33:52.728Z,26.1
2023-11-06T07:39:45.380Z,26.1
2023-11-06T07:45:22.343Z,26.1
2023-11-06T07:50:59.705Z,26.1
2023-11-06T07:56:36.202Z,26.1
2023-11-06T08:02:27.080Z,26.1
2023-11-06T08:08:19.687Z,26.1
2023-11-06T08:13:57.362Z,26
2023-11-06T08:19:21.102Z,26
2023-11-06T08:25:14.519Z,26
2023-11-06T08:31:06.607Z,26
2023-11-06T08:37:00.543Z,25.9
2023-11-06T08:42:37.821Z,26
2023-11-06T08:48:29.898Z,25.9
2023-11-06T08:54:12.534Z,25.9
2023-11-06T09:00:05.134Z,25.9
2023-11-06T09:05:57.893Z,25.9
2023-11-06T09:11:36.269Z,25.9
2023-11-06T09:17:28.508Z,25.9
2023-11-06T09:23:21.121Z,25.9
2023-11-06T09:29:16.092Z,25.9
2023-11-06T09:35:09.734Z,25.9
2023-11-06T09:41:02.168Z,25.9
2023-11-06T09:46:41.145Z,25.9
2023-11-06T09:52:36.462Z,25.9
2023-11-06T09:58:00.128Z,25.8
2023-11-06T10:03:53.353Z,25.9
2023-11-06T10:09:47.061Z,25.8
2023-11-06T10:15:27.934Z,25.8
2023-11-06T10:21:21.683Z,25.8
2023-11-06T10:27:01.041Z,25.8
2023-11-06T10:32:54.829Z,25.8
2023-11-06T10:38:36.145Z,25.8
2023-11-06T10:44:46.114Z,25.8
2023-11-06T10:50:40.403Z,25.8
2023-11-06T10:56:45.247Z,25.8
2023-11-06T11:02:38.429Z,25.8
2023-11-06T11:08:32.145Z,25.8
2023-11-06T11:14:28.113Z,25.8
2023-11-06T11:20:24.975Z,25.8
2023-11-06T11:26:17.968Z,25.7
2023-11-06T11:32:10.938Z,25.7
2023-11-06T11:38:09.642Z,25.7
2023-11-06T11:44:02.857Z,25.7
2023-11-06T11:49:55.484Z,25.6
2023-11-06T11:55:32.860Z,25.6
2023-11-06T12:01:24.830Z,25.6
2023-11-06T12:07:20.032Z,25.6
2023-11-06T12:13:16.730Z,25.6
2023-11-06T12:19:16.356Z,25.6
2023-11-06T12:25:09.829Z,25.6
2023-11-06T12:30:47.097Z,25.6
2023-11-06T12:36:42.721Z,25.6
2023-11-06T12:42:34.979Z,25.6
2023-11-06T12:48:41.779Z,25.6
2023-11-06T12:54:35.285Z,25.6
2023-11-06T13:00:28.753Z,25.6
2023-11-06T13:06:22.689Z,25.6
2023-11-06T13:12:08.455Z,25.6
2023-11-06T13:17:45.352Z,25.5
2023-11-06T13:23:38.276Z,25.5
2023-11-06T13:29:31.775Z,25.5
2023-11-06T13:35:24.023Z,25.5
2023-11-06T13:41:17.503Z,25.5
2023-11-06T13:47:08.157Z,25.4
2023-11-06T13:53:01.532Z,25.4
2023-11-06T13:59:10.895Z,25.4
2023-11-06T14:04:47.702Z,25.4
2023-11-06T14:10:39.890Z,25.4
2023-11-06T14:16:16.241Z,25.4
2023-11-06T14:22:07.768Z,25.4
2023-11-06T14:27:59.649Z,25.4
2023-11-06T14:33:52.374Z,25.4
2023-11-06T14:39:44.140Z,25.4
2023-11-06T14:45:36.560Z,25.4
2023-11-06T14:51:40.240Z,25.4
2023-11-06T14:57:47.454Z,25.4
2023-11-06T15:03:40.554Z,25.4
2023-11-06T15:09:33.928Z,25.3
2023-11-06T15:15:25.609Z,25.3
2023-11-06T15:21:19.081Z,25.3
2023-11-06T15:27:15.581Z,25.3
2023-11-06T15:33:08.346Z,25.3
2023-11-06T15:39:02.342Z,25.3
2023-11-06T15:44:58.230Z,25.3
2023-11-06T15:51:00.841Z,25.3
2023-11-06T15:56:53.888Z,25.3
2023-11-06T16:02:15.764Z,25.3
2023-11-06T16:08:10.592Z,25.3
2023-11-06T16:14:02.953Z,25.3
2023-11-06T16:19:55.984Z,25.3
2023-11-06T16:25:50.532Z,25.2
2023-11-06T16:31:27.862Z,25.2
2023-11-06T16:37:34.382Z,25.2
2023-11-06T16:43:26.354Z,25.2
2023-11-06T16:49:19.945Z,25.2
2023-11-06T16:55:11.587Z,25.2
2023-11-06T17:01:03.624Z,25.2
2023-11-06T17:06:57.497Z,25.1
2023-11-06T17:12:53.641Z,25.1
2023-11-06T17:18:49.595Z,25.1
2023-11-06T17:24:47.294Z,25.1
2023-11-06T17:30:39.656Z,25.1
2023-11-06T17:36:32.715Z,25.1
2023-11-06T17:42:25.206Z,25.1
2023-11-06T17:48:23.509Z,25.1
2023-11-06T17:54:15.200Z,25.1
2023-11-06T18:00:07.498Z,25.1
2023-11-06T18:06:03.076Z,25.1
2023-11-06T18:11:38.948Z,25.1
2023-11-06T18:17:30.765Z,25.1
2023-11-06T18:23:24.209Z,25.1
2023-11-06T18:29:15.401Z,25
2023-11-06T18:35:08.039Z,25
2023-11-06T18:40:45.146Z,25.1
2023-11-06T18:46:20.974Z,25
2023-11-06T18:52:13.976Z,25
2023-11-06T18:58:06.751Z,25
2023-11-06T19:03:58.720Z,25
2023-11-06T19:09:58.601Z,24.9
2023-11-06T19:15:51.020Z,24.9
2023-11-06T19:21:43.418Z,24.9
2023-11-06T19:27:38.795Z,24.9
2023-11-06T19:33:31.782Z,24.9
2023-11-06T19:39:23.738Z,24.9
2023-11-06T19:45:16.029Z,24.9
2023-11-06T19:51:12.196Z,24.9
2023-11-06T19:57:04.118Z,24.9
2023-11-06T20:03:31.795Z,24.9
2023-11-06T20:09:24.864Z,24.9
2023-11-06T20:15:16.372Z,24.9
2023-11-06T20:21:09.947Z,24.9
2023-11-06T20:27:02.455Z,24.9
2023-11-06T20:32:40.961Z,24.9
2023-11-06T20:38:03.558Z,24.9
2023-11-06T20:43:42.419Z,24.8
2023-11-06T20:49:35.002Z,24.8
2023-11-06T20:55:27.029Z,24.8
2023-11-06T21:01:19.365Z,24.8
2023-11-06T21:06:57.134Z,24.8
2023-11-06T21:12:49.436Z,24.8
2023-11-06T21:18:41.737Z,24.8
2023-11-06T21:24:33.558Z,24.8
2023-11-06T21:30:25.764Z,24.8
2023-11-06T21:36:22.650Z,24.8
2023-11-06T21:47:36.604Z,24.8
2023-11-06T21:53:29.241Z,24.7
2023-11-06T21:59:35.914Z,24.8
2023-11-06T22:05:36.510Z,24.7
2023-11-06T22:11:21.143Z,24.7
2023-11-06T22:16:42.922Z,24.7
2023-11-06T22:27:43.644Z,24.7
2023-11-06T22:33:36.070Z,24.7
2023-11-06T22:45:07.075Z,24.7
2023-11-06T22:50:59.932Z,24.6
2023-11-06T22:56:36.835Z,24.6
2023-11-06T23:02:13.523Z,24.6
2023-11-06T23:07:50.569Z,24.6
2023-11-06T23:13:43.211Z,24.6
2023-11-06T23:19:36.064Z,24.6
2023-11-06T23:25:33.170Z,24.6
2023-11-06T23:31:24.196Z,24.6
2023-11-06T23:37:17.086Z,24.6
2023-11-06T23:43:19.853Z,24.6
2023-11-06T23:49:12.415Z,24.6
2023-11-06T23:55:05.402Z,24.6
